Airfield :
LOGIN :

Register | Disclaimer

   EN    FR    IT 

 










Legend :    VFR   Marginal VFR   IFR   Intensive IFR   Very Intensive IFR
Visi :
Ceiling :
>= 8 km
>= 3000ft
5 to 8 km
1000 to 3000 ft
1500m to 5 km
500 to 1000 ft
800 to 1500m
200 to 500 ft
< 800m
< 200 ft
Symbols :   Thunderstorms  Fog  Heavy snow  Heavy precipitations  Wind > 20 kt
SIGMETs :     Misc.  Thunderstorms  Icing  Turbulence  Mountain Waves  Volcanic Ashes






- Airport Elevation : 52 ft
- IATA code : IOM


EGNS - Isle of Man

CURRENT METAR :
  • 250720Z 13004KT 100V170 6000 BKN012 OVC025 05/03 Q1032 TEMPO SCT012 BKN025

EXPIRED METARs :
  • 250650Z 11004KT 6000 SCT012 BKN015 OVC024 04/02 Q1033 TEMPO BKN012
  • 250620Z 03004KT 6000 BKN013 OVC018 04/02 Q1032 NOSIG
  • 250550Z 07003KT 6000 SCT013 BKN015 OVC018 04/03 Q1032 TEMPO BKN013
  • 250520Z 11003KT 7000 BKN014 OVC020 04/03 Q1032 TEMPO SCT014
  • 250450Z VRB03KT 7000 FEW010 BKN014 OVC016 04/02 Q1032

TAF COR TAF EGNS
Valid from the 25 at 06:00 until the 25 at 15:00 UTC


250500Z 2506/2515 VRB03KT 9999 BKN013 OVC018
TEMPO 2506/2515 6000 BR BKN007
BECMG 2512/2515 26013KT



MET'MAP, your aeronautical weather chart ! - Copyright ORBIFLY December 2007 - Disclaimer

ORBIFLY MET'MAP TEAM :

Programming & Development : Alexandra Zaïnal
Original concept : Baudouin d'Aumeries
Technical & hardware support : Manuel Goepfert
Assistance : Marc-Olivier Méhu

Contact : metmap@orbifly.com




SOURCES & CREDITS :

   NOAA